LFRN 172000Z AUTO 18008KT 9999 OVC007 10/10 Q1022 NOSIG

ElémentsDécodage
LFRN Station météo située sur l'aérodrome de RENNES Saint-Jacques
172000Z émis le 17 du mois à 20h00 UTC
AUTO Bulletin édité par un automate
18008KT vent du 180°, 08 noeuds
9999 visibilité horizontale supérieure à 10 Km
OVC007 couverture nuageuse totale (8/8) à 700 pieds
10/10 température 10°C, point de rosée 10°C
 soit une humidité relative de 100%
Q1022 la pression au niveau de la mer (QNH) est de 1022 hPa
NOSIG Pas de changement significatif prévu au cours des deux heures suivant l'heure de l'observation